• Join FlightAware (Why Join?)
  • Login
  • US Flag 
12:39AM EDT


 

Airport Tracker/Info


-or-


 

Live Flight TrackerFlight Track Log ✈ N6245S ✈ 27-Jul-2013 ✈ KAHN - KMBO

Flight Track Log - Related Links

Times and Time Zones

All times are in EDT time to prevent confusion due to time zone crossing. See the N6245S flight status page for this flight to view local times or setup timezone preferences in your user account.

Time Position Orientation Groundspeed Altitude Reporting Facility
EDT Latitude Longitude Course Direction KTS MPH feet Rate Location/Type
10:34AM 33.9500 -83.3500 340° North 97 112 1,400  Level Atlanta TRACON
10:35AM 33.9667 -83.3833 301° West 101 116 2,200 780 Climbing Atlanta TRACON
10:36AM 33.9833 -83.4167 301° West 101 116 3,000 660 Climbing Atlanta TRACON
10:37AM 34.0000 -83.4333 320° Northwest 102 117 3,600 600 Climbing Atlanta TRACON
10:38AM 34.0167 -83.4667 301° West 98 113 4,200 540 Climbing Atlanta TRACON
10:39AM 34.0267 -83.4747 326° Northwest 100 115 4,500 540 Climbing Atlanta Center
10:40AM 34.1472 -83.4083 340° North  Level FlightAware Approximate
10:40AM 34.0456 -83.4997 312° West 100 115 5,100  Level Atlanta Center
10:41AM 34.0603 -83.5272 303° West 100 115 5,700 540 Climbing Atlanta Center
10:42AM 34.0772 -83.5522 309° West 100 115 6,200 540 Climbing Atlanta Center
10:43AM 34.1022 -83.5847 313° West 107 123 6,800 480 Climbing Atlanta Center
10:44AM 34.1211 -83.6097 312° West 107 123 7,200 420 Climbing Atlanta Center
10:45AM 34.1400 -83.6372 310° West 107 123 7,700 360 Climbing Atlanta Center
10:46AM 34.1589 -83.6647 310° West 107 123 8,000 180 Climbing Atlanta Center
10:47AM 34.1819 -83.6972 311° West 112 129 8,100  Climbing Atlanta Center
10:48AM 34.2031 -83.7375 302° West 122 140 8,100  Level Atlanta Center
10:49AM 34.2261 -83.7725 309° West 128 147 8,100  Level Atlanta Center
10:50AM 34.2469 -83.8050 308° West 137 158 8,100  Level Atlanta Center
10:51AM 34.2658 -83.8453 300° West 137 158 8,100  Level Atlanta Center
10:52AM 34.2867 -83.8831 304° West 137 158 8,100 -60 Level Atlanta Center
10:53AM 34.3014 -83.9256 293° West 137 158 8,000 -60 Descending Atlanta Center
10:54AM 34.3203 -83.9658 300° West 137 158 8,000  Level Atlanta Center
10:55AM 34.3369 -84.0061 297° West 137 158 8,000  Level Atlanta Center
10:56AM 34.3556 -84.0439 301° West 137 158 8,100  Climbing Atlanta Center
10:57AM 34.3703 -84.0842 294° West 137 158 8,100  Level Atlanta Center
10:58AM 34.3892 -84.1319 296° West 137 158 8,100  Level Atlanta Center
10:59AM 34.4036 -84.1722 294° West 137 158 8,100  Level Atlanta Center
11:00AM 34.4203 -84.2125 297° West 137 158 8,100 -60 Level Atlanta Center
11:01AM 34.4411 -84.2528 302° West 137 158 8,000 -60 Descending Atlanta Center
11:02AM 34.4556 -84.2933 293° West 137 158 8,000  Level Atlanta Center
11:03AM 34.4700 -84.3336 294° West 137 158 8,000  Level Atlanta Center
11:04AM 34.4867 -84.3764 295° West 132 152 8,000 60 Level Atlanta Center
11:05AM 34.4969 -84.4169 287° West 132 152 8,200  Climbing Atlanta Center
11:06AM 34.4822 -84.4544 245° Southwest 125 144 8,000 -120 Descending Atlanta Center
11:07AM 34.4614 -84.4922 236° Southwest 132 152 8,000  Level Atlanta Center
11:08AM 34.4425 -84.5275 237° Southwest 138 159 8,100  Climbing Atlanta Center
11:09AM 34.4275 -84.5625 243° Southwest 138 159 8,100  Level Atlanta Center
11:10AM 34.4086 -84.6003 239° Southwest 138 159 8,100  Level Atlanta Center
11:11AM 34.3897 -84.6406 240° Southwest 133 153 8,100  Level Atlanta Center
11:12AM 34.3728 -84.6781 241° Southwest 138 159 8,100  Level Atlanta Center
11:13AM 34.3558 -84.7181 243° Southwest 138 159 8,100  Level Atlanta Center
11:14AM 34.3389 -84.7558 241° Southwest 138 159 8,100  Level Atlanta Center
11:15AM 34.3200 -84.7983 242° Southwest 138 159 8,100  Level Atlanta Center
11:16AM 34.3031 -84.8358 241° Southwest 138 159 8,100  Level Atlanta Center
11:17AM 34.2819 -84.8786 239° Southwest 138 159 8,100  Level Atlanta Center
11:18AM 34.2628 -84.9186 240° Southwest 138 159 8,100  Level Atlanta Center
11:19AM 34.2458 -84.9586 243° Southwest 138 159 8,100 -60 Level Atlanta Center
11:20AM 34.2267 -84.9986 240° Southwest 138 159 8,000  Descending Atlanta Center
11:21AM 34.2078 -85.0358 238° Southwest 138 159 8,100  Climbing Atlanta Center
11:22AM 34.1906 -85.0758 243° Southwest 138 159 8,100 -60 Level Atlanta Center
11:23AM 34.1714 -85.1158 240° Southwest 138 159 8,000  Descending Atlanta Center
11:24AM 34.1669 -85.1586 263° West 131 151 8,100  Climbing Atlanta Center
11:25AM 34.1603 -85.2011 259° West 131 151 8,100  Level Atlanta Center
11:26AM 34.1597 -85.2489 269° West 131 151 8,100  Level Atlanta Center
11:27AM 34.1636 -85.2942 276° West 131 151 8,100  Level Atlanta Center
11:28AM 34.1694 -85.3369 279° West 144 166 8,100  Level Atlanta Center
11:29AM 34.1731 -85.3819 276° West 144 166 8,200  Climbing Atlanta Center
11:30AM 34.1747 -85.4297 272° West 139 160 8,100 -120 Descending Atlanta Center
11:31AM 34.1719 -85.4750 266° West 139 160 8,000 -60 Descending Atlanta Center
11:32AM 34.1714 -85.5175 269° West 139 160 8,000  Level Atlanta Center
11:33AM 34.1753 -85.5628 276° West 139 160 8,100  Climbing Atlanta Center
11:34AM 34.1706 -85.6031 262° West 134 154 8,100  Level Atlanta Center
11:35AM 34.1739 -85.6508 275° West 134 154 8,100  Level Atlanta Center
11:36AM 34.1775 -85.6933 276° West 129 148 8,100  Level Atlanta Center
11:37AM 34.1792 -85.7336 273° West 124 143 8,100  Level Atlanta Center
11:38AM 34.1806 -85.7764 272° West 124 143 8,100  Level Atlanta Center
11:39AM 34.1781 -85.8192 266° West 124 143 8,200  Climbing Atlanta Center
11:40AM 34.1836 -85.8619 279° West 124 143 8,200 -60 Level Atlanta Center
11:41AM 34.1914 -85.9047 282° West 124 143 8,100 -60 Descending Atlanta Center
11:42AM 34.1803 -85.9497 253° West 124 143 8,100  Level Atlanta Center
11:43AM 34.1817 -85.9900 272° West 124 143 8,100  Level Atlanta Center
11:44AM 34.1767 -86.0350 262° West 124 143 8,100  Level Atlanta Center
11:45AM 34.1844 -86.0753 283° West 124 143 8,100  Level Atlanta Center
11:46AM 34.1900 -86.1206 278° West 124 143 8,100  Level Atlanta Center
11:47AM 34.1892 -86.1658 269° West 129 148 8,100  Level Atlanta Center
11:48AM 34.1883 -86.2086 269° West 129 148 8,100  Level Atlanta Center
11:49AM 34.1919 -86.2514 276° West 129 148 8,100 -60 Level Atlanta Center
11:50AM 34.1911 -86.2939 269° West 129 148 8,000  Descending Atlanta Center
11:51AM 34.1903 -86.3392 269° West 129 148 8,100  Climbing Atlanta Center
11:53AM 34.1876 -86.4152 268° West  Level FlightAware Approximate
12:00PM 34.1836 -86.7291 270° West  Level FlightAware Approximate
12:01PM 34.1836 -86.7738 270° West  Level FlightAware Approximate
12:02PM 34.1836 -86.8186 270° West  Level FlightAware Approximate
12:02PM 34.1389 -86.8044 270° West 134 154 8,100  Level Atlanta Center
12:03PM 34.1836 -86.8634 270° West  Level FlightAware Approximate
12:03PM 34.1147 -86.8639 244° Southwest 134 154 8,100  Level Atlanta Center
12:04PM 34.1836 -86.9082 270° West  Level FlightAware Approximate
12:04PM 34.0969 -86.9011 240° Southwest 135 155 8,100  Level Atlanta Center
12:05PM 34.1836 -86.9529 270° West  Level FlightAware Approximate
12:05PM 34.0753 -86.9406 236° Southwest 133 153 8,200  Level Atlanta Center
12:06PM 34.0556 -86.9775 237° Southwest 137 158 8,100 -60 Descending Atlanta Center
12:07PM 34.0339 -87.0142 235° Southwest 138 159 8,100  Level Atlanta Center
12:08PM 34.0142 -87.0536 239° Southwest 136 157 8,100 -60 Level Atlanta Center
12:09PM 33.9964 -87.0931 241° Southwest 136 157 8,000 -60 Descending Atlanta Center
12:10PM 33.9786 -87.1400 245° Southwest 134 154 8,000  Level Atlanta Center
12:11PM 33.9567 -87.1794 236° Southwest 135 155 8,100  Climbing Atlanta Center
12:12PM 33.9369 -87.2186 239° Southwest 135 155 8,100  Level Atlanta Center
12:13PM 33.9233 -87.2581 247° West 136 157 8,100  Level Atlanta Center
12:14PM 33.9097 -87.2978 248° West 134 154 8,100  Level Atlanta Center
12:16PM 33.8858 -87.3472 240° Southwest 141 162 8,100  Level Memphis Center
12:17PM 33.8636 -87.3828 233° Southwest 141 162 8,100  Level Memphis Center
12:18PM 33.8417 -87.4211 235° Southwest 146 168 8,100 -60 Level Memphis Center
12:19PM 33.8194 -87.4619 237° Southwest 146 168 8,000 -60 Descending Memphis Center
12:20PM 33.8017 -87.5025 242° Southwest 146 168 8,000  Level Memphis Center
12:21PM 33.7839 -87.5431 242° Southwest 146 168 8,000  Level Memphis Center
12:22PM 33.7639 -87.5836 239° Southwest 146 168 8,000  Level Memphis Center
12:23PM 33.7439 -87.6192 236° Southwest 146 168 8,000  Level Memphis Center
12:24PM 33.7239 -87.6575 238° Southwest 146 168 8,100  Climbing Memphis Center
12:25PM 33.7039 -87.6956 238° Southwest 146 168 8,100  Level Memphis Center
12:26PM 33.6858 -87.7358 242° Southwest 146 168 8,100  Level Memphis Center
12:27PM 33.6678 -87.7739 240° Southwest 146 168 8,100  Level Memphis Center
12:28PM 33.6478 -87.8144 239° Southwest 146 168 8,100 -60 Level Memphis Center
12:29PM 33.6278 -87.8525 238° Southwest 146 168 8,000 -60 Descending Memphis Center
12:30PM 33.6075 -87.8906 237° Southwest 146 168 8,000  Level Memphis Center
12:31PM 33.5894 -87.9283 240° Southwest 146 168 8,000  Level Memphis Center
12:32PM 33.5694 -87.9664 238° Southwest 146 168 8,100  Climbing Memphis Center
12:33PM 33.5492 -88.0042 237° Southwest 146 168 8,100  Level Memphis Center
12:34PM 33.5311 -88.0447 242° Southwest 146 168 8,100  Level Memphis Center
12:35PM 33.5111 -88.0800 236° Southwest 146 168 8,100  Level Memphis Center
12:36PM 33.4908 -88.1178 237° Southwest 146 168 8,100  Level Memphis Center
12:37PM 33.4686 -88.1558 235° Southwest 146 168 8,100 -60 Level Memphis Center
12:38PM 33.4525 -88.1986 246° West 146 168 8,000 -60 Descending Memphis Center
12:39PM 33.4364 -88.2339 241° Southwest 146 168 8,000  Level Memphis Center
12:40PM 33.4164 -88.2717 238° Southwest 146 168 8,100  Climbing Memphis Center
12:41PM 33.3961 -88.3069 235° Southwest 146 168 8,100  Level Memphis Center
12:42PM 33.3800 -88.3447 243° Southwest 146 168 8,100  Level Memphis Center
12:43PM 33.3575 -88.3825 235° Southwest 141 162 8,100  Level Memphis Center
12:44PM 33.3394 -88.4228 242° Southwest 141 162 8,100 -120 Level Memphis Center
12:45PM 33.3150 -88.4606 232° Southwest 141 162 7,900 -300 Descending Memphis Center
12:46PM 33.2925 -88.5008 236° Southwest 147 169 7,500 -600 Descending Memphis Center
12:47PM 33.2744 -88.5383 240° Southwest 147 169 6,800 -600 Descending Memphis Center
12:48PM 33.2583 -88.5808 246° West 147 169 6,400 -360 Descending Memphis Center
12:49PM 33.2358 -88.6136 231° Southwest 141 162 6,100 -180 Descending Memphis Center
12:50PM 33.2175 -88.6489 238° Southwest 141 162 6,100 -60 Level Memphis Center
12:51PM 33.1992 -88.6864 240° Southwest 136 157 6,000  Descending Memphis Center
12:52PM 33.1789 -88.7242 237° Southwest 136 157 6,100  Climbing Memphis Center
12:53PM 33.1606 -88.7617 240° Southwest 136 157 6,000 -120 Descending Memphis Center
12:54PM 33.1400 -88.7967 235° Southwest 136 157 5,900  Descending Memphis Center
12:55PM 33.1219 -88.8367 242° Southwest 136 157 6,000  Climbing Memphis Center
12:56PM 33.1033 -88.8717 238° Southwest 136 157 5,900  Descending Memphis Center
12:57PM 33.0850 -88.9067 238° Southwest 136 157 6,000  Climbing Memphis Center
12:58PM 33.0667 -88.9467 241° Southwest 136 157 6,000  Level Memphis Center
12:59PM 33.0442 -88.9794 231° Southwest 136 157 6,000  Level Memphis Center
01:00PM 33.0258 -89.0119 236° Southwest 136 157 6,100  Climbing Memphis Center
01:01PM 33.0031 -89.0494 234° Southwest 136 157 6,100  Level Memphis Center
01:02PM 32.9847 -89.0867 240° Southwest 136 157 6,100  Level Memphis Center
01:03PM 32.9706 -89.1242 246° West 136 157 6,100  Level Memphis Center
01:04PM 32.9519 -89.1567 236° Southwest 136 157 6,100  Level Memphis Center
01:05PM 32.9317 -89.1939 237° Southwest 136 157 6,100 -60 Level Memphis Center
01:06PM 32.9131 -89.2314 239° Southwest 136 157 6,000 -60 Descending Memphis Center
01:07PM 32.8947 -89.2686 240° Southwest 136 157 6,000  Level Memphis Center
01:08PM 32.8761 -89.3036 238° Southwest 136 157 6,100 -60 Climbing Memphis Center
01:09PM 32.8597 -89.3408 242° Southwest 136 157 5,900 -60 Descending Memphis Center
01:10PM 32.8392 -89.3731 233° Southwest 136 157 6,000  Climbing Memphis Center
01:11PM 32.8206 -89.4081 238° Southwest 131 151 6,000 -60 Level Memphis Center
01:12PM 32.7981 -89.4403 230° Southwest 131 151 5,900  Descending Memphis Center
01:13PM 32.7711 -89.4678 221° Southwest 131 151 6,000  Climbing Memphis Center
01:14PM 32.7442 -89.4928 218° Southwest 131 151 6,000  Level Memphis Center
01:15PM 32.7192 -89.5228 225° Southwest 131 151 6,100  Climbing Memphis Center
01:16PM 32.6944 -89.5525 225° Southwest 131 151 6,100 -60 Level Memphis Center
01:17PM 32.6717 -89.5822 228° Southwest 131 151 6,000 -60 Descending Memphis Center
01:18PM 32.6614 -89.6194 252° West 126 145 6,000 -180 Level Memphis Center
01:19PM 32.6533 -89.6614 257° West 126 145 5,700 -420 Descending Memphis Center
01:20PM 32.6431 -89.7036 254° West 131 151 5,200 -480 Descending Memphis Center
01:21PM 32.6369 -89.7481 261° West 131 151 4,800 -480 Descending Memphis Center
01:22PM 32.6289 -89.7900 257° West 131 151 4,300 -600 Descending Memphis Center
01:23PM 32.6228 -89.8344 261° West 136 157 3,700 -600 Descending Memphis Center
01:24PM 32.6189 -89.8789 264° West 141 162 3,200 -600 Descending Memphis Center
01:25PM 32.6128 -89.9233 261° West 141 162 2,600 -600 Descending Memphis Center
01:26PM 32.6086 -89.9653 263° West 141 162 2,100 -300 Descending Memphis Center
01:27PM 32.6067 -90.0022 266° West 136 157 2,100 -60 Level Memphis Center
01:28PM 32.6006 -90.0392 259° West 126 145 2,000 -60 Descending Memphis Center
01:29PM 32.5922 -90.0786 256° West 126 145 2,000  Level Memphis Center
01:30PM 32.5819 -90.1133 251° West 126 145 2,100  Climbing Memphis Center
01:31PM 32.5506 -90.1158 184° South 100 115 2,000 -180 Descending Memphis Center
01:32PM 32.5192 -90.1108 172° South 100 115 1,800 -240 Descending Memphis Center
01:34PM 32.4514 -90.1023 174° South  Level FlightAware Approximate
01:41PM 32.4333 -90.1000 180° South  Level FlightAware Approximate